Ball Ground, Georgia
Current Conditions -  °F | °C
As of 10:15 AM on Monday 22 Dec 2014 (Local Time) from KCNI Reporting Station
Haze Haze  
Wind Chill: 40°   Ceiling: 300
Heat Index: 45°   Visibility: 5mi
Dew Point: 41°   Wind: 9mph
Humidity: 87%   Direction: 80°E
Pressure: 30.02"   Gusts: 17mph
Location:  34.34°N, 84.38°W
Report Text: KCNI 221515Z AUTO 08008G15KT 060V130 5SM BR OVC003 07/05 A3002 RMK AO2
Loading
Personal Weather Stations






























Interactive Weather Map New forecast layout! Learn more

10-Day Weather Forecast

Advertisements
Track Severe Weather on mobile